createdAt,value
2023-03-14T07:29:42.003Z,99.90
2023-03-14T07:34:36.585Z,99.90
2023-03-14T07:39:30.347Z,99.90
2023-03-14T07:44:28.514Z,99.90
2023-03-14T07:49:23.485Z,99.90
2023-03-14T07:54:17.009Z,99.90
2023-03-14T07:59:10.607Z,99.90
2023-03-14T08:04:04.361Z,99.90
2023-03-14T08:08:59.385Z,99.90
2023-03-14T08:13:53.411Z,99.90
2023-03-14T08:18:47.438Z,99.90
2023-03-14T08:23:41.126Z,99.90
2023-03-14T08:28:35.922Z,99.90
2023-03-14T08:33:30.886Z,99.90
2023-03-14T08:38:24.789Z,99.90
2023-03-14T08:43:18.564Z,99.90
2023-03-14T08:48:30.470Z,99.90
2023-03-14T08:53:24.456Z,99.90
2023-03-14T08:58:17.950Z,99.90
2023-03-14T09:03:11.823Z,99.90
2023-03-14T09:08:07.200Z,99.90
2023-03-14T09:13:01.410Z,99.90
2023-03-14T09:17:55.341Z,99.90
2023-03-14T09:22:48.817Z,99.90
2023-03-14T09:27:43.667Z,99.90
2023-03-14T09:47:21.559Z,99.90
2023-03-14T09:52:19.169Z,99.90
2023-03-14T09:57:16.579Z,99.30
2023-03-14T10:02:20.989Z,99.90
2023-03-14T10:07:17.612Z,94.40
2023-03-14T10:12:11.430Z,94.90
2023-03-14T10:17:11.052Z,92.60
2023-03-14T10:22:07.634Z,92.00
2023-03-14T10:27:04.023Z,90.60
2023-03-14T10:32:02.071Z,91.30
2023-03-14T10:36:57.306Z,91.50
2023-03-14T10:41:55.035Z,91.40
2023-03-14T10:46:49.436Z,91.20
2023-03-14T10:51:53.851Z,91.10
2023-03-14T10:56:47.277Z,91.50
2023-03-14T11:01:50.190Z,91.40
2023-03-14T11:06:50.654Z,91.40
2023-03-14T11:11:49.837Z,91.40
2023-03-14T11:16:54.403Z,90.40
2023-03-14T11:21:55.410Z,90.30
2023-03-14T11:26:57.408Z,90.20
2023-03-14T11:31:55.836Z,88.90
2023-03-14T11:36:55.092Z,88.10
2023-03-14T11:41:51.539Z,86.10
2023-03-14T11:46:50.544Z,86.20
2023-03-14T11:51:51.753Z,86.00
2023-03-14T11:56:53.218Z,86.30
2023-03-14T12:01:56.761Z,86.70
2023-03-14T12:06:54.467Z,86.70
2023-03-14T12:11:53.921Z,86.00
2023-03-14T12:16:49.968Z,86.80
2023-03-14T12:21:50.352Z,86.70
2023-03-14T12:26:54.935Z,85.80
2023-03-14T12:31:50.050Z,86.40
2023-03-14T12:37:12.504Z,85.90
2023-03-14T12:42:13.260Z,85.90
2023-03-14T12:47:44.787Z,85.90
2023-03-14T12:52:49.251Z,85.50
2023-03-14T12:58:04.745Z,84.20
2023-03-14T13:03:15.414Z,85.40
2023-03-14T13:08:15.174Z,84.70
2023-03-14T13:13:22.454Z,86.50
2023-03-14T13:18:19.074Z,85.80
2023-03-14T13:23:23.957Z,85.20
2023-03-14T13:28:19.035Z,86.80
2023-03-14T13:33:18.005Z,86.80
2023-03-14T13:38:21.656Z,87.00
2023-03-14T13:43:20.099Z,85.40
2023-03-14T13:48:30.884Z,86.10
2023-03-14T13:53:25.563Z,85.50
2023-03-14T13:58:34.554Z,85.80
2023-03-14T14:03:29.012Z,85.90
2023-03-14T14:08:22.876Z,85.90
2023-03-14T14:13:20.557Z,85.50
2023-03-14T14:18:19.183Z,85.40
2023-03-14T14:23:15.015Z,84.00
2023-03-14T14:28:19.612Z,85.50
2023-03-14T14:33:21.219Z,84.70
2023-03-14T14:38:18.967Z,86.10
2023-03-14T14:43:19.410Z,86.60
2023-03-14T14:48:15.828Z,86.80
2023-03-14T14:53:24.860Z,86.80
2023-03-14T14:58:26.264Z,88.30
2023-03-14T15:03:21.581Z,88.40
2023-03-14T15:08:15.275Z,88.00
2023-03-14T15:13:09.196Z,88.90
2023-03-14T15:18:02.888Z,88.90
2023-03-14T15:22:58.372Z,89.60
2023-03-14T15:27:53.264Z,89.80
2023-03-14T15:32:46.981Z,90.10
2023-03-14T15:37:41.031Z,90.50
2023-03-14T15:42:36.839Z,90.50
2023-03-14T15:47:33.529Z,90.40
2023-03-14T15:52:27.757Z,90.80
2023-03-14T15:57:21.856Z,91.30
2023-03-14T16:02:18.367Z,91.80
2023-03-14T16:07:13.198Z,92.30
2023-03-14T16:12:08.614Z,92.80
2023-03-14T16:17:02.250Z,93.30
2023-03-14T16:21:57.669Z,93.70
2023-03-14T16:26:51.302Z,93.60
